Afrodite — CURM3 — position and weather

sailwx.info

Track history (hours):
 
Tides and Currents Weather Stations Pressure Air Temp Water Temp Dewpoint Dewpoint Depression Visibility Wind Speed Wind Dir Waves Ship Positions

Afrodite

Last reported at 2016-May-19 18:28 UTC. Time now 2016-May-30 12:39 UTC.
Position N 39°13' W 009°22'.
Warning: this ship's position is 10 days out of date.

Length 26 m.

Type: Fishing. MMSI: 263500170.

Date/timePositionNaut miles runAvg speedWind from/ knotsBaromVisibWave heightAir tempDewpointWater temp
2016-May-19 18:28N 39°13' W 009°22'0 0.2
2016-May-19 17:33N 39°13' W 009°22'1 0.8
2016-May-19 16:33N 39°12' W 009°22'0 0.3
2016-May-19 15:33N 39°12' W 009°22'0 0.1
2016-May-19 14:33N 39°12' W 009°22'0 0.1
2016-May-19 13:33N 39°12' W 009°22'9 6.3
2016-May-19 12:05N 39°21' W 009°22'0 0.0
2016-May-18 18:28N 39°21' W 009°22'0 0.0
2016-May-18 17:33N 39°21' W 009°22'0 0.0
2016-May-18 14:31N 39°21' W 009°22'0 0.0
2016-May-18 13:33N 39°21' W 009°22'0 0.0
2016-May-17 18:33N 39°21' W 009°22'0 0.0
2016-May-17 17:28N 39°21' W 009°22'4 4.9
2016-May-17 16:33N 39°17' W 009°23'6 5.7
2016-May-17 15:33N 39°11' W 009°23'1 0.5
2016-May-17 14:33N 39°12' W 009°23'2 2.4
2016-May-17 13:33N 39°14' W 009°23'7 7.2
2016-May-17 12:33N 39°21' W 009°22'0 0.0
2016-May-16 21:27N 39°21' W 009°22'5 2.4
2016-May-16 19:10N 39°24' W 009°28'  
Track history (hours):
 
Tides and Currents Weather Stations Pressure Air Temp Water Temp Dewpoint Dewpoint Depression Visibility Wind Speed Wind Dir Waves Ship Positions

Afrodite

Last reported at 2016-May-19 18:28 UTC. Time now 2016-May-30 12:39 UTC.
Position N 39°13' W 009°22'.
Warning: this ship's position is 10 days out of date.

Length 26 m.

Type: Fishing. MMSI: 263500170.

Date/timePositionNaut miles runAvg speedWind from/ knotsBaromVisibWave heightAir tempDewpointWater temp
2016-May-19 18:28N 39°13' W 009°22'0 0.2
2016-May-19 17:33N 39°13' W 009°22'1 0.8
2016-May-19 16:33N 39°12' W 009°22'0 0.3
2016-May-19 15:33N 39°12' W 009°22'0 0.1
2016-May-19 14:33N 39°12' W 009°22'0 0.1
2016-May-19 13:33N 39°12' W 009°22'9 6.3
2016-May-19 12:05N 39°21' W 009°22'0 0.0
2016-May-18 18:28N 39°21' W 009°22'0 0.0
2016-May-18 17:33N 39°21' W 009°22'0 0.0
2016-May-18 14:31N 39°21' W 009°22'0 0.0
2016-May-18 13:33N 39°21' W 009°22'0 0.0
2016-May-17 18:33N 39°21' W 009°22'0 0.0
2016-May-17 17:28N 39°21' W 009°22'4 4.9
2016-May-17 16:33N 39°17' W 009°23'6 5.7
2016-May-17 15:33N 39°11' W 009°23'1 0.5
2016-May-17 14:33N 39°12' W 009°23'2 2.4
2016-May-17 13:33N 39°14' W 009°23'7 7.2
2016-May-17 12:33N 39°21' W 009°22'0 0.0
2016-May-16 21:27N 39°21' W 009°22'5 2.4
2016-May-16 19:10N 39°24' W 009°28'  

Dump ship's entire track history